createdAt,value
2018-02-05T00:02:22.743Z,1.70
2018-02-05T00:04:50.184Z,1.70
2018-02-05T00:07:17.627Z,1.70
2018-02-05T00:09:45.075Z,1.70
2018-02-05T00:12:12.523Z,1.60
2018-02-05T00:14:39.964Z,1.60
2018-02-05T00:17:07.411Z,1.60
2018-02-05T00:19:35.624Z,1.60
2018-02-05T00:22:03.064Z,1.50
2018-02-05T00:24:30.535Z,1.60
2018-02-05T00:26:57.972Z,1.60
2018-02-05T00:29:25.430Z,1.60
2018-02-05T00:31:52.892Z,1.60
2018-02-05T00:34:20.337Z,1.60
2018-02-05T00:36:47.768Z,1.60
2018-02-05T00:39:15.291Z,1.60
2018-02-05T00:41:42.736Z,1.60
2018-02-05T00:44:12.089Z,1.60
2018-02-05T00:46:39.517Z,1.60
2018-02-05T00:49:06.971Z,1.60
2018-02-05T00:51:34.412Z,1.60
2018-02-05T00:54:01.854Z,1.50
2018-02-05T00:56:29.313Z,1.50
2018-02-05T00:58:56.751Z,1.40
2018-02-05T01:01:24.211Z,1.50
2018-02-05T01:03:51.669Z,1.40
2018-02-05T01:06:19.113Z,1.50
2018-02-05T01:08:46.562Z,1.50
2018-02-05T01:11:14.018Z,1.50
2018-02-05T01:13:41.473Z,1.50
2018-02-05T01:16:08.908Z,1.50
2018-02-05T01:18:36.752Z,1.50
2018-02-05T01:21:04.186Z,1.50
2018-02-05T01:23:31.620Z,1.50
2018-02-05T01:25:59.075Z,1.60
2018-02-05T01:28:26.529Z,1.60
2018-02-05T01:30:53.990Z,1.50
2018-02-05T01:33:21.450Z,1.60
2018-02-05T01:35:48.896Z,1.60
2018-02-05T01:38:16.328Z,1.50
2018-02-05T01:40:43.776Z,1.50
2018-02-05T01:43:11.243Z,1.50
2018-02-05T01:45:38.693Z,1.50
2018-02-05T01:48:06.150Z,1.60
2018-02-05T01:50:33.611Z,1.60
2018-02-05T01:53:01.085Z,1.60
2018-02-05T01:55:28.529Z,1.60
2018-02-05T01:57:55.977Z,1.70
2018-02-05T02:00:23.433Z,1.70
2018-02-05T02:02:50.892Z,1.70
2018-02-05T02:05:18.341Z,1.70
2018-02-05T02:07:45.779Z,1.70
2018-02-05T02:10:13.224Z,1.70
2018-02-05T02:12:40.665Z,1.70
2018-02-05T02:15:08.120Z,1.70
2018-02-05T02:17:36.262Z,1.70
2018-02-05T02:20:03.718Z,1.70
2018-02-05T02:22:31.152Z,1.60
2018-02-05T02:24:58.605Z,1.60
2018-02-05T02:27:26.077Z,1.60
2018-02-05T02:29:53.534Z,1.60
2018-02-05T02:32:20.998Z,1.70
2018-02-05T02:34:48.429Z,1.70
2018-02-05T02:37:15.913Z,1.70
2018-02-05T02:39:43.374Z,1.60
2018-02-05T02:42:10.844Z,1.60
2018-02-05T02:44:38.284Z,1.50
2018-02-05T02:47:05.740Z,1.40
2018-02-05T02:49:33.206Z,1.40
2018-02-05T02:52:01.148Z,1.40
2018-02-05T02:54:28.589Z,1.40
2018-02-05T02:56:56.045Z,1.40
2018-02-05T02:59:23.514Z,1.50
2018-02-05T03:01:50.983Z,1.50
2018-02-05T03:04:18.442Z,1.50
2018-02-05T03:06:45.901Z,1.50
2018-02-05T03:09:14.123Z,1.50
2018-02-05T03:11:41.579Z,1.50
2018-02-05T03:14:09.041Z,1.60
2018-02-05T03:16:36.472Z,1.60
2018-02-05T03:19:03.928Z,1.60
2018-02-05T03:21:32.145Z,1.70
2018-02-05T03:23:59.606Z,1.60
2018-02-05T03:26:27.067Z,1.70
2018-02-05T03:28:54.534Z,1.70
2018-02-05T03:31:22.000Z,1.70
2018-02-05T03:33:49.455Z,1.70
2018-02-05T03:36:16.901Z,1.70
2018-02-05T03:38:44.438Z,1.70
2018-02-05T03:41:11.906Z,1.70
2018-02-05T03:43:39.362Z,1.60
2018-02-05T03:46:06.812Z,1.60
2018-02-05T03:48:34.274Z,1.60
2018-02-05T03:51:01.732Z,1.60
2018-02-05T03:53:29.187Z,1.50
2018-02-05T03:55:56.638Z,1.50
2018-02-05T03:58:24.087Z,1.50
2018-02-05T04:00:51.549Z,1.50
2018-02-05T04:03:19.010Z,1.50
2018-02-05T04:05:46.452Z,1.40
2018-02-05T04:08:13.904Z,1.30
2018-02-05T04:10:41.345Z,1.30
2018-02-05T04:13:08.795Z,1.30
2018-02-05T04:15:36.235Z,1.30
2018-02-05T04:18:04.459Z,1.20
2018-02-05T04:20:31.894Z,1.20
2018-02-05T04:23:00.105Z,1.20
2018-02-05T04:25:27.564Z,1.10
2018-02-05T04:27:55.029Z,1.10
2018-02-05T04:30:23.764Z,1.00
2018-02-05T04:32:51.208Z,1.00
2018-02-05T04:35:18.679Z,1.00
2018-02-05T04:37:46.139Z,0.90
2018-02-05T04:40:13.597Z,0.90
2018-02-05T04:42:41.052Z,0.80
2018-02-05T04:45:08.508Z,0.80
2018-02-05T04:47:35.946Z,0.80
2018-02-05T04:50:03.436Z,0.70
2018-02-05T04:52:30.872Z,0.70
2018-02-05T04:54:58.339Z,0.60
2018-02-05T04:57:25.804Z,0.60
2018-02-05T04:59:53.249Z,0.60
2018-02-05T05:02:20.706Z,0.50
2018-02-05T05:04:48.173Z,0.50
2018-02-05T05:07:15.680Z,0.40
2018-02-05T05:09:43.891Z,0.40
2018-02-05T05:12:11.335Z,0.30
2018-02-05T05:14:38.815Z,0.40
2018-02-05T05:17:06.257Z,0.30
2018-02-05T05:19:33.717Z,0.30
2018-02-05T05:22:01.179Z,0.30
2018-02-05T05:24:29.402Z,0.30
2018-02-05T05:26:56.851Z,0.20
2018-02-05T05:29:24.342Z,0.30
2018-02-05T05:31:51.785Z,0.20
2018-02-05T05:34:19.263Z,0.20
2018-02-05T05:36:46.700Z,0.20
2018-02-05T05:39:14.141Z,0.20
2018-02-05T05:41:41.596Z,0.20
2018-02-05T05:44:09.032Z,0.10
2018-02-05T05:46:37.249Z,0.10
2018-02-05T05:49:04.688Z,0.00
2018-02-05T05:51:32.133Z,0.10
2018-02-05T06:00:43.185Z,-0.10
2018-02-05T06:03:10.652Z,-0.10
2018-02-05T06:05:38.113Z,-0.10
2018-02-05T06:08:05.551Z,-0.10
2018-02-05T06:10:33.002Z,-0.10
2018-02-05T06:13:00.475Z,-0.10
2018-02-05T06:15:27.928Z,-0.10
2018-02-05T06:17:55.380Z,-0.10
2018-02-05T06:20:22.844Z,-0.10
2018-02-05T06:22:50.300Z,-0.10
2018-02-05T06:25:17.756Z,-0.10
2018-02-05T06:27:45.986Z,-0.10
2018-02-05T06:30:13.454Z,-0.20
2018-02-05T06:32:41.082Z,-0.10
2018-02-05T06:35:08.527Z,-0.10
2018-02-05T06:37:35.976Z,-0.10
2018-02-05T06:40:03.440Z,-0.10
2018-02-05T06:42:30.887Z,-0.10
2018-02-05T06:44:58.349Z,-0.10
2018-02-05T06:47:25.807Z,-0.10
2018-02-05T06:49:53.280Z,-0.10
2018-02-05T06:52:32.451Z,-0.20
2018-02-05T06:55:12.573Z,-0.20
2018-02-05T06:57:40.038Z,-0.30
2018-02-05T07:00:07.491Z,-0.20
2018-02-05T07:02:35.204Z,-0.30
2018-02-05T07:05:03.424Z,-0.30
2018-02-05T07:07:30.886Z,-0.30
2018-02-05T07:09:58.347Z,-0.30
2018-02-05T07:12:25.795Z,-0.30
2018-02-05T07:14:53.275Z,-0.20
2018-02-05T07:17:20.716Z,-0.20
2018-02-05T07:19:48.171Z,-0.20
2018-02-05T07:22:15.640Z,-0.20
2018-02-05T07:24:43.101Z,-0.20
2018-02-05T07:27:11.112Z,-0.10
2018-02-05T07:29:38.548Z,-0.10
2018-02-05T07:32:05.992Z,-0.10
2018-02-05T07:34:33.461Z,-0.10
2018-02-05T07:37:00.910Z,-0.10
2018-02-05T07:39:28.369Z,-0.10
2018-02-05T07:41:55.819Z,-0.10
2018-02-05T07:44:24.041Z,-0.10
2018-02-05T07:46:51.510Z,-0.10
2018-02-05T07:49:18.961Z,0.00
2018-02-05T07:51:46.433Z,0.00
2018-02-05T07:54:13.879Z,0.10
2018-02-05T07:56:41.326Z,0.20
2018-02-05T07:59:08.786Z,0.40
2018-02-05T08:01:36.262Z,1.00
2018-02-05T08:04:03.712Z,1.80
2018-02-05T08:06:31.156Z,2.40
2018-02-05T08:08:58.592Z,2.80
2018-02-05T08:11:26.054Z,3.00
2018-02-05T08:13:53.500Z,3.30
2018-02-05T08:16:20.961Z,3.80
2018-02-05T08:18:48.414Z,4.20
2018-02-05T08:21:15.863Z,4.50
2018-02-05T08:23:43.326Z,4.90
2018-02-05T08:26:10.776Z,5.20
2018-02-05T08:28:38.235Z,5.50
2018-02-05T08:31:05.681Z,5.70
2018-02-05T08:33:33.137Z,6.00
2018-02-05T08:36:00.585Z,6.30
2018-02-05T08:38:28.028Z,6.60
2018-02-05T08:40:55.470Z,6.80
2018-02-05T08:43:22.907Z,7.00
2018-02-05T08:45:50.361Z,7.20
2018-02-05T08:48:18.144Z,7.30
2018-02-05T08:50:46.528Z,7.50
2018-02-05T08:53:13.956Z,7.50
2018-02-05T08:55:41.450Z,7.40
2018-02-05T08:58:08.842Z,7.40
2018-02-05T09:00:36.289Z,7.40
2018-02-05T09:03:03.743Z,7.50
2018-02-05T09:05:31.200Z,7.60
2018-02-05T09:08:01.084Z,7.60
2018-02-05T09:10:28.524Z,7.80
2018-02-05T09:12:55.970Z,8.20
2018-02-05T09:15:24.468Z,8.40
2018-02-05T09:17:51.912Z,7.60
2018-02-05T09:20:20.475Z,6.60
2018-02-05T09:22:47.906Z,5.70
2018-02-05T09:25:15.488Z,5.00
2018-02-05T09:27:42.920Z,4.40
2018-02-05T09:30:10.362Z,4.00
2018-02-05T09:32:37.817Z,3.80
2018-02-05T09:35:05.263Z,3.70
2018-02-05T09:37:32.714Z,3.50
2018-02-05T09:40:00.171Z,3.40
2018-02-05T09:42:27.618Z,3.30
2018-02-05T09:44:55.057Z,3.20
2018-02-05T09:47:22.496Z,3.20
2018-02-05T09:49:50.292Z,3.30
2018-02-05T09:52:17.729Z,3.20
2018-02-05T09:54:45.167Z,3.30
2018-02-05T09:57:12.621Z,3.50
2018-02-05T09:59:40.049Z,3.50
2018-02-05T10:02:07.500Z,3.60
2018-02-05T10:04:34.941Z,3.80
2018-02-05T10:07:02.384Z,3.90
2018-02-05T10:09:30.608Z,4.10
2018-02-05T10:11:58.053Z,4.00
2018-02-05T10:14:25.518Z,4.30
2018-02-05T10:16:52.944Z,4.40
2018-02-05T10:19:21.171Z,4.50
2018-02-05T10:21:48.609Z,4.50
2018-02-05T10:24:16.070Z,4.50
2018-02-05T10:26:43.506Z,4.50
2018-02-05T10:29:10.963Z,4.60
2018-02-05T10:31:38.395Z,4.60
2018-02-05T10:34:05.841Z,4.70
2018-02-05T10:36:33.297Z,5.00
2018-02-05T10:39:00.730Z,5.40
2018-02-05T10:41:28.216Z,5.70
2018-02-05T10:43:55.650Z,5.70
2018-02-05T10:46:23.111Z,5.80
2018-02-05T10:48:50.581Z,6.00
2018-02-05T10:51:18.784Z,6.50
2018-02-05T10:53:46.237Z,6.50
2018-02-05T10:56:13.674Z,6.60
2018-02-05T10:58:41.143Z,6.20
2018-02-05T11:01:08.836Z,6.00
2018-02-05T11:03:36.278Z,6.00
2018-02-05T11:06:03.742Z,5.90
2018-02-05T11:08:31.181Z,5.80
2018-02-05T11:10:58.657Z,5.70
2018-02-05T11:13:26.105Z,5.60
2018-02-05T11:15:53.555Z,6.00
2018-02-05T11:18:20.994Z,6.60
2018-02-05T11:20:48.458Z,7.20
2018-02-05T11:23:15.924Z,8.00
2018-02-05T11:25:43.369Z,8.80
2018-02-05T11:28:10.835Z,9.90
2018-02-05T11:30:38.277Z,11.20
2018-02-05T11:33:05.716Z,12.00
2018-02-05T11:35:33.176Z,12.80
2018-02-05T11:38:02.076Z,14.20
2018-02-05T11:40:29.528Z,14.10
2018-02-05T11:42:57.213Z,14.40
2018-02-05T11:45:24.665Z,14.60
2018-02-05T11:47:52.133Z,15.00
2018-02-05T11:50:20.186Z,15.30
2018-02-05T11:52:47.616Z,15.50
2018-02-05T11:55:15.084Z,15.30
2018-02-05T11:57:42.791Z,15.00
2018-02-05T12:00:10.246Z,14.80
2018-02-05T12:02:37.810Z,14.80
2018-02-05T12:05:05.256Z,14.80
2018-02-05T12:07:32.688Z,14.90
2018-02-05T12:10:00.142Z,14.60
2018-02-05T12:12:27.672Z,14.50
2018-02-05T12:14:55.139Z,14.50
2018-02-05T12:17:22.833Z,14.80
2018-02-05T12:19:50.263Z,15.00
2018-02-05T12:22:17.706Z,15.30
2018-02-05T12:24:45.230Z,15.80
2018-02-05T12:27:12.678Z,16.20
2018-02-05T12:29:40.242Z,16.30
2018-02-05T12:32:07.677Z,16.30
2018-02-05T12:34:35.336Z,16.30
2018-02-05T12:37:02.777Z,16.60
2018-02-05T12:39:30.238Z,16.90
2018-02-05T12:41:57.722Z,17.20
2018-02-05T12:44:25.316Z,17.30
2018-02-05T12:46:53.533Z,17.00
2018-02-05T12:49:20.979Z,16.90
2018-02-05T12:51:49.186Z,16.70
2018-02-05T12:54:16.666Z,16.60
2018-02-05T12:56:44.095Z,17.10
2018-02-05T12:59:11.557Z,17.30
2018-02-05T13:01:40.528Z,17.20
2018-02-05T13:04:13.669Z,16.80
2018-02-05T13:06:41.113Z,16.70
2018-02-05T13:09:08.568Z,16.40
2018-02-05T13:11:36.043Z,16.40
2018-02-05T13:14:03.552Z,16.40
2018-02-05T13:16:30.954Z,16.40
2018-02-05T13:18:58.395Z,16.40
2018-02-05T13:21:25.841Z,16.70
2018-02-05T13:23:53.283Z,16.30
2018-02-05T13:26:21.212Z,15.90
2018-02-05T13:28:48.661Z,15.90
2018-02-05T13:31:16.099Z,15.90
2018-02-05T13:33:43.565Z,16.10
2018-02-05T13:36:12.008Z,15.70
2018-02-05T13:38:39.494Z,15.70
2018-02-05T13:41:07.143Z,15.80
2018-02-05T13:43:34.595Z,16.00
2018-02-05T13:46:02.066Z,15.80
2018-02-05T13:48:29.517Z,15.20
2018-02-05T13:50:56.965Z,14.10
2018-02-05T13:53:24.448Z,12.70
2018-02-05T13:55:51.892Z,11.60
2018-02-05T13:58:19.327Z,10.50
2018-02-05T14:00:46.784Z,9.80
2018-02-05T14:03:14.992Z,9.10
2018-02-05T14:05:42.432Z,9.00
2018-02-05T14:08:09.871Z,9.50
2018-02-05T14:10:38.089Z,10.00
2018-02-05T14:13:05.538Z,9.90
2018-02-05T14:15:32.987Z,10.40
2018-02-05T14:18:01.200Z,11.20
2018-02-05T14:20:28.652Z,11.20
2018-02-05T14:22:56.101Z,12.00
2018-02-05T14:25:23.564Z,12.70
2018-02-05T14:27:51.000Z,12.90
2018-02-05T14:30:19.122Z,13.30
2018-02-05T14:32:46.543Z,13.60
2018-02-05T14:35:14.761Z,14.40
2018-02-05T14:37:43.928Z,14.50
2018-02-05T14:40:11.383Z,14.40
2018-02-05T14:42:39.610Z,14.10
2018-02-05T14:45:09.996Z,14.00
2018-02-05T14:47:37.436Z,13.90
2018-02-05T14:50:05.649Z,12.90
2018-02-05T14:52:33.123Z,12.80
2018-02-05T14:55:00.571Z,12.10
2018-02-05T14:57:30.043Z,11.10
2018-02-05T14:59:57.490Z,10.90
2018-02-05T15:02:24.925Z,11.00
2018-02-05T15:04:52.373Z,11.00
2018-02-05T15:07:19.838Z,10.80
2018-02-05T15:09:48.923Z,10.80
2018-02-05T15:12:16.361Z,10.80
2018-02-05T15:14:44.576Z,10.20
2018-02-05T15:17:12.013Z,10.20
2018-02-05T15:19:39.455Z,9.70
2018-02-05T15:22:06.908Z,9.30
2018-02-05T15:24:34.335Z,8.80
2018-02-05T15:27:01.788Z,8.40
2018-02-05T15:29:29.234Z,8.20
2018-02-05T15:31:56.676Z,8.00
2018-02-05T15:34:24.125Z,7.90
2018-02-05T15:36:52.333Z,7.90
2018-02-05T15:39:19.763Z,7.80
2018-02-05T15:41:47.972Z,7.60
2018-02-05T15:44:15.428Z,7.50
2018-02-05T15:46:42.890Z,7.50
2018-02-05T15:49:10.338Z,7.30
2018-02-05T15:51:38.536Z,6.80
2018-02-05T15:54:05.995Z,6.70
2018-02-05T15:56:33.453Z,6.50
2018-02-05T15:59:00.911Z,6.20
2018-02-05T16:01:28.357Z,5.90
2018-02-05T16:03:56.560Z,5.50
2018-02-05T16:06:24.001Z,5.40
2018-02-05T16:08:51.452Z,5.30
2018-02-05T16:11:18.893Z,5.10
2018-02-05T16:13:46.339Z,4.90
2018-02-05T16:16:13.781Z,4.80
2018-02-05T16:18:41.238Z,4.60
2018-02-05T16:21:08.672Z,4.50
2018-02-05T16:23:36.126Z,4.40
2018-02-05T16:26:03.571Z,4.30
2018-02-05T16:28:31.020Z,4.20
2018-02-05T16:30:59.900Z,4.00
2018-02-05T16:33:27.337Z,3.90
2018-02-05T16:35:54.781Z,3.90
2018-02-05T16:38:22.234Z,3.80
2018-02-05T16:40:49.680Z,3.80
2018-02-05T16:43:17.139Z,3.70
2018-02-05T16:45:44.564Z,3.60
2018-02-05T16:48:12.016Z,3.60
2018-02-05T16:50:39.467Z,3.60
2018-02-05T16:53:06.924Z,3.50
2018-02-05T16:55:34.361Z,3.40
2018-02-05T16:58:01.794Z,3.30
2018-02-05T17:00:29.245Z,3.20
2018-02-05T17:02:56.699Z,3.20
2018-02-05T17:05:24.172Z,3.10
2018-02-05T17:07:51.614Z,3.10
2018-02-05T17:10:19.070Z,3.10
2018-02-05T17:12:46.526Z,3.00
2018-02-05T17:15:13.994Z,2.90
2018-02-05T17:17:41.457Z,2.80
2018-02-05T17:20:09.669Z,2.70
2018-02-05T17:22:37.881Z,2.60
2018-02-05T17:25:05.334Z,2.50
2018-02-05T17:27:32.780Z,2.60
2018-02-05T17:30:00.214Z,2.50
2018-02-05T17:32:27.668Z,2.50
2018-02-05T17:34:55.107Z,2.40
2018-02-05T17:37:22.543Z,2.30
2018-02-05T17:39:50.019Z,2.30
2018-02-05T17:42:18.063Z,2.20
2018-02-05T17:44:45.540Z,2.20
2018-02-05T17:47:12.932Z,2.10
2018-02-05T17:49:40.376Z,2.10
2018-02-05T17:52:07.877Z,2.00
2018-02-05T17:54:35.312Z,2.00
2018-02-05T17:57:02.787Z,2.00
2018-02-05T17:59:30.262Z,1.90
2018-02-05T18:01:57.690Z,1.80
2018-02-05T18:04:25.128Z,1.80
2018-02-05T18:06:52.572Z,1.70
2018-02-05T18:09:20.806Z,1.70
2018-02-05T18:11:48.249Z,1.70
2018-02-05T18:14:15.706Z,1.70
2018-02-05T18:16:43.152Z,1.70
2018-02-05T18:19:10.617Z,1.60
2018-02-05T18:21:38.072Z,1.60
2018-02-05T18:24:05.513Z,1.60
2018-02-05T18:26:33.730Z,1.50
2018-02-05T18:29:01.177Z,1.50
2018-02-05T18:31:28.615Z,1.50
2018-02-05T18:33:56.087Z,1.50
2018-02-05T18:36:23.529Z,1.40
2018-02-05T18:38:50.984Z,1.40
2018-02-05T18:41:18.428Z,1.40
2018-02-05T18:43:45.899Z,1.40
2018-02-05T18:46:13.421Z,1.30
2018-02-05T18:48:40.878Z,1.30
2018-02-05T18:51:08.332Z,1.30
2018-02-05T18:53:35.804Z,1.30
2018-02-05T18:56:03.257Z,1.30
2018-02-05T18:58:30.695Z,1.30
2018-02-05T19:00:58.159Z,1.20
2018-02-05T19:03:25.628Z,1.20
2018-02-05T19:05:53.086Z,1.30
2018-02-05T19:08:20.536Z,1.20
2018-02-05T19:10:47.968Z,1.20
2018-02-05T19:13:15.433Z,1.20
2018-02-05T19:15:42.881Z,1.20
2018-02-05T19:18:10.337Z,1.20
2018-02-05T19:20:37.777Z,1.10
2018-02-05T19:23:05.223Z,1.10
2018-02-05T19:25:32.844Z,1.00
2018-02-05T19:28:00.296Z,1.00
2018-02-05T19:30:27.783Z,0.90
2018-02-05T19:32:55.250Z,0.90
2018-02-05T19:35:22.683Z,0.90
2018-02-05T19:37:50.145Z,0.80
2018-02-05T19:40:17.581Z,0.80
2018-02-05T19:42:45.046Z,0.80
2018-02-05T19:45:12.493Z,0.70
2018-02-05T19:47:39.948Z,0.70
2018-02-05T19:50:07.418Z,0.70
2018-02-05T19:52:34.853Z,0.70
2018-02-05T19:55:02.320Z,0.70
2018-02-05T19:57:29.779Z,0.70
2018-02-05T19:59:57.245Z,0.60
2018-02-05T20:02:24.956Z,0.60
2018-02-05T20:04:52.416Z,0.60
2018-02-05T20:07:19.889Z,0.50
2018-02-05T20:09:47.349Z,0.50
2018-02-05T20:12:14.813Z,0.50
2018-02-05T20:14:42.269Z,0.50
2018-02-05T20:17:09.721Z,0.50
2018-02-05T20:19:37.201Z,0.50
2018-02-05T20:22:04.655Z,0.50
2018-02-05T20:24:32.122Z,0.40
2018-02-05T20:26:59.573Z,0.50
2018-02-05T20:29:27.028Z,0.40
2018-02-05T20:31:54.479Z,0.40
2018-02-05T20:34:21.974Z,0.40
2018-02-05T20:36:49.416Z,0.40
2018-02-05T20:39:16.904Z,0.40
2018-02-05T20:41:44.733Z,0.40
2018-02-05T20:44:12.177Z,0.40
2018-02-05T20:46:39.629Z,0.40
2018-02-05T20:49:07.080Z,0.30
2018-02-05T20:51:34.529Z,0.30
2018-02-05T20:54:01.988Z,0.30
2018-02-05T20:56:29.441Z,0.30
2018-02-05T20:58:57.666Z,0.30
2018-02-05T21:01:25.122Z,0.30
2018-02-05T21:03:52.568Z,0.40
2018-02-05T21:06:20.024Z,0.40
2018-02-05T21:08:47.471Z,0.50
2018-02-05T21:11:14.933Z,0.50
2018-02-05T21:13:42.381Z,0.50
2018-02-05T21:16:09.843Z,0.50
2018-02-05T21:18:37.289Z,0.50
2018-02-05T21:21:04.749Z,0.50
2018-02-05T21:23:32.212Z,0.50
2018-02-05T21:25:59.654Z,0.50
2018-02-05T21:28:27.127Z,0.50
2018-02-05T21:30:54.589Z,0.60
2018-02-05T21:33:23.565Z,0.50
2018-02-05T21:35:51.004Z,0.50
2018-02-05T21:38:18.441Z,0.50
2018-02-05T21:40:45.921Z,0.60
2018-02-05T21:43:13.358Z,0.50
2018-02-05T21:45:41.219Z,0.50
2018-02-05T21:48:10.029Z,0.50
2018-02-05T21:50:37.464Z,0.50
2018-02-05T21:53:04.938Z,0.50
2018-02-05T21:55:32.399Z,0.50
2018-02-05T21:57:59.854Z,0.50
2018-02-05T22:00:27.313Z,0.50
2018-02-05T22:02:54.759Z,0.50
2018-02-05T22:05:22.446Z,0.50
2018-02-05T22:07:49.897Z,0.50
2018-02-05T22:10:17.370Z,0.50
2018-02-05T22:12:44.801Z,0.50
2018-02-05T22:15:12.252Z,0.50
2018-02-05T22:17:39.720Z,0.50
2018-02-05T22:20:07.193Z,0.50
2018-02-05T22:22:34.620Z,0.50
2018-02-05T22:25:02.074Z,0.60
2018-02-05T22:27:29.535Z,0.50
2018-02-05T22:29:57.011Z,0.60
2018-02-05T22:32:24.448Z,0.50
2018-02-05T22:34:51.916Z,0.50
2018-02-05T22:37:19.361Z,0.50
2018-02-05T22:39:46.829Z,0.50
2018-02-05T22:42:14.265Z,0.50
2018-02-05T22:44:41.725Z,0.50
2018-02-05T22:47:09.169Z,0.50
2018-02-05T22:49:36.659Z,0.50
2018-02-05T22:52:04.059Z,0.40
2018-02-05T22:54:31.493Z,0.40
2018-02-05T22:56:58.955Z,0.40
2018-02-05T22:59:26.396Z,0.40
2018-02-05T23:01:53.852Z,0.40
2018-02-05T23:04:21.324Z,0.40
2018-02-05T23:06:48.759Z,0.40
2018-02-05T23:09:17.708Z,0.30
2018-02-05T23:11:45.171Z,0.30
2018-02-05T23:14:12.622Z,0.40
2018-02-05T23:16:40.088Z,0.40
2018-02-05T23:19:07.525Z,0.40
2018-02-05T23:21:35.172Z,0.30
2018-02-05T23:24:02.623Z,0.40
2018-02-05T23:26:30.084Z,0.40
2018-02-05T23:28:57.540Z,0.40
2018-02-05T23:31:24.989Z,0.40
2018-02-05T23:33:52.441Z,0.40
2018-02-05T23:36:19.894Z,0.40
2018-02-05T23:38:47.337Z,0.40
2018-02-05T23:41:14.794Z,0.40
2018-02-05T23:43:42.237Z,0.30
2018-02-05T23:46:10.448Z,0.30
2018-02-05T23:48:37.889Z,0.30
2018-02-05T23:51:05.355Z,0.30
2018-02-05T23:53:32.791Z,0.30
2018-02-05T23:56:00.232Z,0.40
2018-02-05T23:58:27.689Z,0.40
